createdAt,value
2022-10-18T00:00:16.033Z,1019.36
2022-10-18T00:01:16.030Z,1019.33
2022-10-18T00:02:16.134Z,1019.36
2022-10-18T00:03:16.021Z,1019.38
2022-10-18T00:04:15.991Z,1019.33
2022-10-18T00:05:15.988Z,1019.40
2022-10-18T00:06:15.970Z,1019.34
2022-10-18T00:07:15.968Z,1019.36
2022-10-18T00:08:15.963Z,1019.38
2022-10-18T00:09:15.950Z,1019.38
2022-10-18T00:10:15.928Z,1019.42
2022-10-18T00:11:15.919Z,1019.42
2022-10-18T00:12:15.896Z,1019.40
2022-10-18T00:13:15.909Z,1019.34
2022-10-18T00:14:15.890Z,1019.36
2022-10-18T00:15:15.887Z,1019.34
2022-10-18T00:16:15.853Z,1019.33
2022-10-18T00:17:15.848Z,1019.27
2022-10-18T00:18:15.850Z,1019.28
2022-10-18T00:19:15.822Z,1019.31
2022-10-18T00:20:15.847Z,1019.32
2022-10-18T00:21:15.801Z,1019.31
2022-10-18T00:22:15.793Z,1019.29
2022-10-18T00:23:15.779Z,1019.26
2022-10-18T00:24:15.762Z,1019.19
2022-10-18T00:25:15.771Z,1019.19
2022-10-18T00:26:15.754Z,1019.19
2022-10-18T00:27:15.738Z,1019.21
2022-10-18T00:28:15.740Z,1019.23
2022-10-18T00:29:15.732Z,1019.14
2022-10-18T00:30:15.704Z,1019.15
2022-10-18T00:31:15.705Z,1019.11
2022-10-18T00:32:15.674Z,1019.11
2022-10-18T00:33:15.672Z,1019.09
2022-10-18T00:34:15.670Z,1019.14
2022-10-18T00:35:15.644Z,1019.15
2022-10-18T00:36:15.644Z,1019.09
2022-10-18T00:37:15.645Z,1019.10
2022-10-18T00:38:15.608Z,1019.19
2022-10-18T00:39:15.600Z,1019.18
2022-10-18T00:40:15.592Z,1019.20
2022-10-18T00:41:15.590Z,1019.17
2022-10-18T00:42:15.564Z,1019.10
2022-10-18T00:43:15.560Z,1019.07
2022-10-18T00:44:15.562Z,1019.08
2022-10-18T00:45:15.554Z,1019.09
2022-10-18T00:46:15.545Z,1019.12
2022-10-18T00:47:15.510Z,1019.12
2022-10-18T00:48:15.500Z,1019.17
2022-10-18T00:49:15.493Z,1019.14
2022-10-18T00:50:15.489Z,1019.18
2022-10-18T00:51:15.474Z,1019.10
2022-10-18T00:52:15.458Z,1019.13
2022-10-18T00:53:15.443Z,1019.08
2022-10-18T00:54:15.433Z,1019.09
2022-10-18T00:55:15.423Z,1019.12
2022-10-18T00:56:15.414Z,1019.17
2022-10-18T00:57:15.437Z,1019.15
2022-10-18T00:58:15.388Z,1019.14
2022-10-18T00:59:15.376Z,1019.16
2022-10-18T01:00:15.377Z,1019.17
2022-10-18T01:01:15.459Z,1019.18
2022-10-18T01:02:15.352Z,1019.17
2022-10-18T01:03:15.355Z,1019.17
2022-10-18T01:04:15.319Z,1019.19
2022-10-18T01:05:15.309Z,1019.19
2022-10-18T01:06:15.294Z,1019.20
2022-10-18T01:07:15.293Z,1019.14
2022-10-18T01:08:15.273Z,1019.12
2022-10-18T01:09:15.273Z,1019.13
2022-10-18T01:10:15.252Z,1019.11
2022-10-18T01:11:15.247Z,1019.09
2022-10-18T01:12:15.232Z,1019.09
2022-10-18T01:13:15.219Z,1019.07
2022-10-18T01:14:15.217Z,1019.03
2022-10-18T01:15:15.212Z,1019.06
2022-10-18T01:16:15.183Z,1019.07
2022-10-18T01:17:15.203Z,1019.17
2022-10-18T01:18:15.190Z,1019.11
2022-10-18T01:19:15.153Z,1019.10
2022-10-18T01:20:15.142Z,1019.08
2022-10-18T01:21:15.127Z,1019.10
2022-10-18T01:22:15.113Z,1019.07
2022-10-18T01:23:15.136Z,1019.04
2022-10-18T01:24:15.089Z,1019.05
2022-10-18T01:25:15.082Z,1019.07
2022-10-18T01:26:15.070Z,1019.10
2022-10-18T01:27:15.060Z,1019.08
2022-10-18T01:28:15.086Z,1019.07
2022-10-18T01:29:15.044Z,1019.09
2022-10-18T01:30:15.023Z,1019.05
2022-10-18T01:31:15.026Z,1019.06
2022-10-18T01:32:15.016Z,1019.09
2022-10-18T01:33:15.036Z,1019.09
2022-10-18T01:34:14.984Z,1019.11
2022-10-18T01:35:14.973Z,1019.13
2022-10-18T01:36:14.955Z,1019.06
2022-10-18T01:37:14.945Z,1019.07
2022-10-18T01:38:14.933Z,1019.14
2022-10-18T01:39:14.934Z,1019.07
2022-10-18T01:40:14.909Z,1019.05
2022-10-18T01:41:15.939Z,1019.05
2022-10-18T01:42:14.891Z,1019.06
2022-10-18T01:43:14.882Z,1019.04
2022-10-18T01:44:14.878Z,1018.97
2022-10-18T01:45:14.867Z,1018.96
2022-10-18T01:46:14.844Z,1018.94
2022-10-18T01:47:14.836Z,1018.95
2022-10-18T01:48:14.823Z,1018.99
2022-10-18T01:49:14.832Z,1019.01
2022-10-18T01:50:14.824Z,1019.07
2022-10-18T01:51:14.792Z,1019.00
2022-10-18T01:52:14.774Z,1019.05
2022-10-18T01:53:14.766Z,1019.09
2022-10-18T01:54:14.761Z,1019.00
2022-10-18T01:55:14.750Z,1019.08
2022-10-18T01:56:14.741Z,1019.01
2022-10-18T01:57:14.740Z,1019.03
2022-10-18T01:58:14.708Z,1018.99
2022-10-18T01:59:14.709Z,1019.00
2022-10-18T02:00:14.694Z,1019.03
2022-10-18T02:01:14.718Z,1019.02
2022-10-18T02:02:14.675Z,1019.00
2022-10-18T02:03:14.662Z,1019.03
2022-10-18T02:04:14.653Z,1019.01
2022-10-18T02:05:14.679Z,1019.01
2022-10-18T02:06:14.619Z,1019.06
2022-10-18T02:07:14.609Z,1019.01
2022-10-18T02:08:22.714Z,1019.08
2022-10-18T02:09:15.603Z,1019.12
2022-10-18T02:11:14.583Z,1019.16
2022-10-18T02:12:14.555Z,1019.10
2022-10-18T02:13:14.548Z,1019.13
2022-10-18T02:14:14.535Z,1019.18
2022-10-18T02:15:14.518Z,1019.16
2022-10-18T02:16:14.520Z,1019.11
2022-10-18T02:17:14.502Z,1019.06
2022-10-18T02:18:14.485Z,1019.05
2022-10-18T02:19:14.536Z,1019.06
2022-10-18T02:20:14.485Z,1019.05
2022-10-18T02:21:14.487Z,1019.04
2022-10-18T02:22:14.439Z,1019.00
2022-10-18T02:23:14.442Z,1019.04
2022-10-18T02:24:14.432Z,1018.99
2022-10-18T02:25:14.412Z,1018.96
2022-10-18T02:26:14.427Z,1018.95
2022-10-18T02:27:14.405Z,1018.97
2022-10-18T02:28:14.458Z,1019.03
2022-10-18T02:29:14.362Z,1019.02
2022-10-18T02:30:14.354Z,1018.97
2022-10-18T02:31:14.356Z,1019.02
2022-10-18T02:32:14.365Z,1018.98
2022-10-18T02:33:14.321Z,1018.97
2022-10-18T02:34:14.310Z,1018.94
2022-10-18T02:35:14.300Z,1018.99
2022-10-18T02:36:14.292Z,1019.00
2022-10-18T02:37:14.373Z,1018.99
2022-10-18T02:38:14.272Z,1019.04
2022-10-18T02:39:14.253Z,1019.04
2022-10-18T02:40:14.238Z,1019.06
2022-10-18T02:41:14.241Z,1019.03
2022-10-18T02:42:14.248Z,1019.07
2022-10-18T02:43:14.207Z,1019.07
2022-10-18T02:44:14.205Z,1019.07
2022-10-18T02:45:14.191Z,1019.03
2022-10-18T02:46:14.247Z,1019.05
2022-10-18T02:47:14.179Z,1019.07
2022-10-18T02:48:14.155Z,1019.04
2022-10-18T02:49:14.162Z,1019.08
2022-10-18T02:50:14.138Z,1019.08
2022-10-18T02:51:14.122Z,1019.13
2022-10-18T02:52:14.132Z,1019.08
2022-10-18T02:53:14.128Z,1019.06
2022-10-18T02:54:14.097Z,1019.09
2022-10-18T02:55:14.077Z,1019.10
2022-10-18T02:56:14.071Z,1019.07
2022-10-18T02:57:14.051Z,1019.11
2022-10-18T02:58:14.065Z,1019.03
2022-10-18T02:59:14.038Z,1019.03
2022-10-18T03:00:14.013Z,1019.07
2022-10-18T03:01:14.049Z,1019.09
2022-10-18T03:02:13.993Z,1019.05
2022-10-18T03:03:13.988Z,1019.06
2022-10-18T03:04:13.976Z,1019.04
2022-10-18T03:05:13.977Z,1019.05
2022-10-18T03:06:13.949Z,1019.03
2022-10-18T03:07:13.934Z,1019.04
2022-10-18T03:08:13.946Z,1019.03
2022-10-18T03:09:14.203Z,1019.02
2022-10-18T03:10:13.904Z,1019.02
2022-10-18T03:11:13.903Z,1018.99
2022-10-18T03:12:13.888Z,1018.95
2022-10-18T03:13:13.870Z,1018.95
2022-10-18T03:14:13.877Z,1018.97
2022-10-18T03:15:13.856Z,1018.99
2022-10-18T03:16:13.837Z,1019.00
2022-10-18T03:17:13.840Z,1018.89
2022-10-18T03:18:13.814Z,1018.92
2022-10-18T03:19:13.825Z,1019.00
2022-10-18T03:20:13.806Z,1018.97
2022-10-18T03:21:13.779Z,1019.03
2022-10-18T03:22:13.777Z,1019.00
2022-10-18T03:23:13.756Z,1019.00
2022-10-18T03:24:13.867Z,1018.97
2022-10-18T03:25:13.764Z,1019.06
2022-10-18T03:26:13.743Z,1019.00
2022-10-18T03:27:13.726Z,1018.97
2022-10-18T03:28:13.711Z,1018.98
2022-10-18T03:29:13.692Z,1018.93
2022-10-18T03:30:13.701Z,1018.95
2022-10-18T03:31:13.686Z,1018.90
2022-10-18T03:32:13.657Z,1018.95
2022-10-18T03:33:13.661Z,1018.94
2022-10-18T03:34:13.637Z,1018.90
2022-10-18T03:35:13.629Z,1018.93
2022-10-18T03:36:13.629Z,1018.96
2022-10-18T03:37:13.600Z,1018.88
2022-10-18T03:38:13.602Z,1018.90
2022-10-18T03:39:13.579Z,1018.89
2022-10-18T03:40:13.569Z,1018.98
2022-10-18T03:41:13.575Z,1018.92
2022-10-18T03:42:13.570Z,1018.96
2022-10-18T03:43:13.535Z,1018.90
2022-10-18T03:44:13.615Z,1018.93
2022-10-18T03:45:13.537Z,1018.85
2022-10-18T03:46:13.502Z,1018.88
2022-10-18T03:47:13.494Z,1018.88
2022-10-18T03:48:13.494Z,1018.87
2022-10-18T03:49:13.569Z,1018.85
2022-10-18T03:50:13.459Z,1018.92
2022-10-18T03:51:13.450Z,1018.89
2022-10-18T03:52:13.495Z,1018.86
2022-10-18T03:53:13.429Z,1018.88
2022-10-18T03:54:13.522Z,1018.87
2022-10-18T03:55:13.401Z,1018.83
2022-10-18T03:56:13.409Z,1018.85
2022-10-18T03:57:13.397Z,1018.89
2022-10-18T03:58:13.380Z,1018.88
2022-10-18T03:59:13.461Z,1018.89
2022-10-18T04:00:13.349Z,1018.93
2022-10-18T04:01:13.373Z,1018.92
2022-10-18T04:02:13.358Z,1018.88
2022-10-18T04:03:13.325Z,1018.93
2022-10-18T04:04:13.358Z,1019.00
2022-10-18T04:05:13.291Z,1018.94
2022-10-18T04:06:13.288Z,1019.01
2022-10-18T04:07:13.274Z,1019.01
2022-10-18T04:08:13.271Z,1018.99
2022-10-18T04:09:13.333Z,1018.97
2022-10-18T04:10:13.237Z,1019.01
2022-10-18T04:11:13.250Z,1019.00
2022-10-18T04:12:13.225Z,1018.97
2022-10-18T04:13:13.225Z,1018.98
2022-10-18T04:14:13.222Z,1019.00
2022-10-18T04:15:13.182Z,1018.99
2022-10-18T04:16:13.182Z,1018.98
2022-10-18T04:17:13.157Z,1018.98
2022-10-18T04:18:13.176Z,1019.03
2022-10-18T04:19:13.184Z,1018.93
2022-10-18T04:20:13.184Z,1018.95
2022-10-18T04:21:13.109Z,1019.00
2022-10-18T04:22:13.104Z,1019.01
2022-10-18T04:23:13.097Z,1019.02
2022-10-18T04:24:13.124Z,1018.98
2022-10-18T04:25:13.076Z,1018.96
2022-10-18T04:26:13.066Z,1018.95
2022-10-18T04:27:13.046Z,1018.95
2022-10-18T04:28:13.065Z,1018.88
2022-10-18T04:29:13.064Z,1018.90
2022-10-18T04:30:13.022Z,1018.91
2022-10-18T04:31:18.398Z,1018.90
2022-10-18T04:32:14.011Z,1018.91
2022-10-18T04:33:12.976Z,1018.94
2022-10-18T04:34:13.012Z,1018.90
2022-10-18T04:35:12.986Z,1018.97
2022-10-18T04:36:12.951Z,1018.99
2022-10-18T04:37:12.957Z,1019.00
2022-10-18T04:38:12.922Z,1019.01
2022-10-18T04:39:12.960Z,1019.10
2022-10-18T04:40:12.945Z,1019.13
2022-10-18T04:41:12.905Z,1019.11
2022-10-18T04:42:12.889Z,1019.13
2022-10-18T04:43:12.874Z,1019.16
2022-10-18T04:44:12.864Z,1019.19
2022-10-18T04:45:12.851Z,1019.15
2022-10-18T04:46:12.844Z,1019.17
2022-10-18T04:47:12.838Z,1019.25
2022-10-18T04:48:12.816Z,1019.26
2022-10-18T04:49:12.844Z,1019.24
2022-10-18T04:50:12.798Z,1019.22
2022-10-18T04:51:12.848Z,1019.28
2022-10-18T04:52:12.787Z,1019.27
2022-10-18T04:53:12.753Z,1019.26
2022-10-18T04:54:12.756Z,1019.26
2022-10-18T04:55:12.733Z,1019.24
2022-10-18T04:56:12.727Z,1019.26
2022-10-18T04:57:12.729Z,1019.26
2022-10-18T04:58:12.714Z,1019.25
2022-10-18T04:59:12.710Z,1019.23
2022-10-18T05:00:12.681Z,1019.34
2022-10-18T05:01:12.728Z,1019.31
2022-10-18T05:02:12.674Z,1019.35
2022-10-18T05:03:12.645Z,1019.24
2022-10-18T05:04:12.656Z,1019.21
2022-10-18T05:05:14.121Z,1019.22
2022-10-18T05:06:12.615Z,1019.22
2022-10-18T05:07:12.622Z,1019.31
2022-10-18T05:08:12.589Z,1019.34
2022-10-18T05:09:12.582Z,1019.31
2022-10-18T05:10:12.572Z,1019.35
2022-10-18T05:11:12.560Z,1019.32
2022-10-18T05:12:12.587Z,1019.35
2022-10-18T05:13:12.538Z,1019.31
2022-10-18T05:14:12.519Z,1019.29
2022-10-18T05:15:12.551Z,1019.22
2022-10-18T05:16:12.522Z,1019.23
2022-10-18T05:17:12.584Z,1019.15
2022-10-18T05:18:12.487Z,1019.14
2022-10-18T05:19:12.460Z,1019.20
2022-10-18T05:20:12.488Z,1019.30
2022-10-18T05:21:12.470Z,1019.26
2022-10-18T05:22:12.439Z,1019.20
2022-10-18T05:23:12.458Z,1019.29
2022-10-18T05:24:12.415Z,1019.30
2022-10-18T05:25:12.394Z,1019.27
2022-10-18T05:26:12.435Z,1019.22
2022-10-18T05:27:12.382Z,1019.24
2022-10-18T05:28:34.421Z,1019.17
2022-10-18T05:29:13.498Z,1019.12
2022-10-18T05:30:12.344Z,1019.10
2022-10-18T05:31:12.345Z,1019.01
2022-10-18T05:32:12.331Z,1019.06
2022-10-18T05:33:12.308Z,1019.07
2022-10-18T05:34:12.299Z,1019.01
2022-10-18T05:35:12.310Z,1019.06
2022-10-18T05:36:12.279Z,1019.08
2022-10-18T05:37:12.277Z,1018.96
2022-10-18T05:38:12.254Z,1019.07
2022-10-18T05:39:12.260Z,1019.02
2022-10-18T05:40:12.233Z,1019.02
2022-10-18T05:41:12.229Z,1019.14
2022-10-18T05:42:12.226Z,1019.10
2022-10-18T05:43:12.214Z,1019.16
2022-10-18T05:44:12.192Z,1019.13
2022-10-18T05:45:12.177Z,1019.17
2022-10-18T05:46:15.419Z,1019.19
2022-10-18T05:47:12.147Z,1019.15
2022-10-18T05:48:12.149Z,1019.21
2022-10-18T05:49:12.142Z,1019.21
2022-10-18T05:50:12.138Z,1019.17
2022-10-18T05:51:12.103Z,1019.19
2022-10-18T05:52:12.097Z,1019.17
2022-10-18T05:53:18.501Z,1019.21
2022-10-18T05:54:13.082Z,1019.10
2022-10-18T05:55:12.086Z,1019.14
2022-10-18T05:56:12.154Z,1019.07
2022-10-18T05:57:12.053Z,1019.09
2022-10-18T05:58:12.043Z,1019.22
2022-10-18T05:59:12.302Z,1019.15
2022-10-18T06:00:12.019Z,1019.20
2022-10-18T06:01:12.001Z,1019.27
2022-10-18T06:02:12.070Z,1019.28
2022-10-18T06:03:11.987Z,1019.27
2022-10-18T06:04:11.973Z,1019.27
2022-10-18T06:05:11.949Z,1019.28
2022-10-18T06:06:11.946Z,1019.37
2022-10-18T06:07:11.924Z,1019.37
2022-10-18T06:08:11.916Z,1019.36
2022-10-18T06:09:11.935Z,1019.29
2022-10-18T06:10:11.902Z,1019.27
2022-10-18T06:11:11.899Z,1019.28
2022-10-18T06:12:11.871Z,1019.27
2022-10-18T06:13:11.862Z,1019.30
2022-10-18T06:14:11.863Z,1019.37
2022-10-18T06:15:11.841Z,1019.35
2022-10-18T06:16:11.902Z,1019.43
2022-10-18T06:17:11.824Z,1019.45
2022-10-18T06:18:11.810Z,1019.41
2022-10-18T06:19:11.819Z,1019.48
2022-10-18T06:20:11.797Z,1019.40
2022-10-18T06:21:11.772Z,1019.40
2022-10-18T06:22:11.769Z,1019.39
2022-10-18T06:23:11.752Z,1019.44
2022-10-18T06:24:11.744Z,1019.46
2022-10-18T06:25:11.728Z,1019.47
2022-10-18T06:26:11.740Z,1019.45
2022-10-18T06:27:11.731Z,1019.51
2022-10-18T06:28:12.381Z,1019.59
2022-10-18T06:29:11.780Z,1019.62
2022-10-18T06:30:11.679Z,1019.63
2022-10-18T06:31:11.660Z,1019.57
2022-10-18T06:32:11.645Z,1019.53
2022-10-18T06:33:11.639Z,1019.59
2022-10-18T06:34:11.656Z,1019.57
2022-10-18T06:35:11.624Z,1019.60
2022-10-18T06:36:11.598Z,1019.67
2022-10-18T06:37:11.604Z,1019.64
2022-10-18T06:38:11.584Z,1019.74
2022-10-18T06:39:11.569Z,1019.77
2022-10-18T06:40:11.570Z,1019.78
2022-10-18T06:41:11.566Z,1019.86
2022-10-18T06:42:11.535Z,1019.84
2022-10-18T06:43:20.667Z,1019.89
2022-10-18T06:44:12.524Z,1019.84
2022-10-18T06:45:11.506Z,1019.86
2022-10-18T06:46:11.507Z,1019.90
2022-10-18T06:47:11.512Z,1019.89
2022-10-18T06:48:11.523Z,1019.86
2022-10-18T06:49:13.110Z,1019.90
2022-10-18T06:50:11.484Z,1019.91
2022-10-18T06:51:11.450Z,1019.92
2022-10-18T06:52:11.431Z,1019.89
2022-10-18T06:53:11.434Z,1019.92
2022-10-18T06:54:17.901Z,1019.89
2022-10-18T06:55:12.413Z,1019.94
2022-10-18T06:56:11.380Z,1019.94
2022-10-18T06:57:11.383Z,1019.97
2022-10-18T06:58:11.415Z,1020.09
2022-10-18T06:59:11.394Z,1020.10
2022-10-18T07:00:11.443Z,1020.02
2022-10-18T07:01:11.398Z,1020.15
2022-10-18T07:02:11.375Z,1020.08
2022-10-18T07:03:11.317Z,1020.07
2022-10-18T07:04:11.291Z,1020.12
2022-10-18T07:05:11.320Z,1020.24
2022-10-18T07:06:11.280Z,1020.19
2022-10-18T07:07:11.277Z,1020.24
2022-10-18T07:08:11.307Z,1020.21
2022-10-18T07:09:11.243Z,1020.24
2022-10-18T07:10:13.048Z,1020.24
2022-10-18T07:11:11.220Z,1020.28
2022-10-18T07:12:11.257Z,1020.25
2022-10-18T07:13:31.348Z,1020.27
2022-10-18T07:14:16.045Z,1020.25
2022-10-18T07:15:11.197Z,1020.30
2022-10-18T07:16:14.138Z,1020.35
2022-10-18T07:17:12.155Z,1020.38
2022-10-18T07:18:11.136Z,1020.45
2022-10-18T07:19:11.131Z,1020.44
2022-10-18T07:20:11.117Z,1020.46
2022-10-18T07:21:11.119Z,1020.43
2022-10-18T07:22:11.103Z,1020.52
2022-10-18T07:23:11.083Z,1020.43
2022-10-18T07:24:11.074Z,1020.45
2022-10-18T07:25:11.068Z,1020.48
2022-10-18T07:26:11.069Z,1020.40
2022-10-18T07:27:11.066Z,1020.43
2022-10-18T07:28:11.026Z,1020.41
2022-10-18T07:29:11.096Z,1020.45
2022-10-18T07:30:11.004Z,1020.51
2022-10-18T07:31:11.018Z,1020.60
2022-10-18T07:32:10.992Z,1020.55
2022-10-18T07:33:10.972Z,1020.58
2022-10-18T07:34:10.974Z,1020.58
2022-10-18T07:36:10.950Z,1020.55
2022-10-18T07:37:10.943Z,1020.49
2022-10-18T07:38:10.991Z,1020.46
2022-10-18T07:39:10.930Z,1020.50
2022-10-18T07:40:10.897Z,1020.46
2022-10-18T07:41:10.926Z,1020.47
2022-10-18T07:42:10.916Z,1020.53
2022-10-18T07:43:12.267Z,1020.55
2022-10-18T07:44:10.882Z,1020.62
2022-10-18T07:45:10.846Z,1020.59
2022-10-18T07:46:10.839Z,1020.61
2022-10-18T07:47:10.838Z,1020.59
2022-10-18T07:48:10.895Z,1020.61
2022-10-18T07:49:10.795Z,1020.62
2022-10-18T07:50:10.783Z,1020.69
2022-10-18T07:51:10.773Z,1020.64
2022-10-18T07:52:10.768Z,1020.65
2022-10-18T07:53:10.764Z,1020.66
2022-10-18T07:54:10.751Z,1020.72
2022-10-18T07:55:10.730Z,1020.76
2022-10-18T07:56:10.714Z,1020.79
2022-10-18T07:57:10.712Z,1020.74
2022-10-18T07:58:10.805Z,1020.74
2022-10-18T07:59:10.684Z,1020.78
2022-10-18T08:00:10.668Z,1020.66
2022-10-18T08:01:10.737Z,1020.62
2022-10-18T08:02:10.650Z,1020.68
2022-10-18T08:03:10.678Z,1020.62
2022-10-18T08:04:14.040Z,1020.63
2022-10-18T08:05:11.618Z,1020.58
2022-10-18T08:06:10.612Z,1020.61
2022-10-18T08:07:10.597Z,1020.64
2022-10-18T08:08:10.692Z,1020.68
2022-10-18T08:09:10.594Z,1020.65
2022-10-18T08:10:10.568Z,1020.69
2022-10-18T08:11:10.585Z,1020.66
2022-10-18T08:12:10.573Z,1020.66
2022-10-18T08:13:10.532Z,1020.60
2022-10-18T08:14:10.539Z,1020.65
2022-10-18T08:15:10.527Z,1020.58
2022-10-18T08:16:10.499Z,1020.59
2022-10-18T08:17:10.487Z,1020.58
2022-10-18T08:18:10.475Z,1020.68
2022-10-18T08:19:10.495Z,1020.69
2022-10-18T08:20:26.127Z,1020.71
2022-10-18T08:21:11.463Z,1020.75
2022-10-18T08:22:10.426Z,1020.79
2022-10-18T08:23:10.424Z,1020.79
2022-10-18T08:24:10.414Z,1020.75
2022-10-18T08:25:10.397Z,1020.74
2022-10-18T08:26:10.383Z,1020.77
2022-10-18T08:27:10.372Z,1020.80
2022-10-18T08:28:10.419Z,1020.84
2022-10-18T08:29:21.843Z,1020.84
2022-10-18T08:30:11.401Z,1020.89
2022-10-18T08:31:10.330Z,1020.87
2022-10-18T08:32:10.321Z,1020.97
2022-10-18T08:33:10.327Z,1020.90
2022-10-18T08:34:10.293Z,1020.98
2022-10-18T08:35:10.361Z,1020.95
2022-10-18T08:36:10.282Z,1020.97
2022-10-18T08:37:10.265Z,1020.94
2022-10-18T08:38:12.110Z,1020.97
2022-10-18T08:39:10.241Z,1020.92
2022-10-18T08:40:10.271Z,1020.99
2022-10-18T08:41:10.214Z,1020.99
2022-10-18T08:42:10.203Z,1020.99
2022-10-18T08:43:10.196Z,1020.98
2022-10-18T08:44:10.206Z,1020.99
2022-10-18T08:45:23.305Z,1021.01
2022-10-18T08:46:11.189Z,1020.98
2022-10-18T08:47:10.149Z,1020.91
2022-10-18T08:48:10.143Z,1020.96
2022-10-18T08:49:10.131Z,1020.92
2022-10-18T08:50:10.135Z,1021.00
2022-10-18T08:51:10.123Z,1021.05
2022-10-18T08:52:10.113Z,1021.03
2022-10-18T08:53:10.092Z,1021.08
2022-10-18T08:54:10.066Z,1021.14
2022-10-18T08:55:10.123Z,1021.12
2022-10-18T08:56:10.075Z,1021.17
2022-10-18T08:57:10.076Z,1021.16
2022-10-18T08:58:10.033Z,1021.12
2022-10-18T08:59:10.025Z,1021.10
2022-10-18T09:00:10.007Z,1021.10
2022-10-18T09:01:10.018Z,1021.15
2022-10-18T09:02:10.043Z,1021.19
2022-10-18T09:03:10.022Z,1021.24
2022-10-18T09:04:09.975Z,1021.16
2022-10-18T09:05:09.956Z,1021.22
2022-10-18T09:06:09.936Z,1021.21
2022-10-18T09:07:09.965Z,1021.13
2022-10-18T09:08:09.920Z,1021.23
2022-10-18T09:09:09.928Z,1021.22
2022-10-18T09:10:09.953Z,1021.23
2022-10-18T09:11:09.879Z,1021.22
2022-10-18T09:12:09.885Z,1021.22
2022-10-18T09:13:09.889Z,1021.22
2022-10-18T09:14:09.842Z,1021.16
2022-10-18T09:15:09.841Z,1021.17
2022-10-18T09:16:09.823Z,1021.15
2022-10-18T09:17:14.990Z,1021.11
2022-10-18T09:18:10.865Z,1021.10
2022-10-18T09:19:09.820Z,1021.19
2022-10-18T09:20:09.801Z,1021.18
2022-10-18T09:21:09.787Z,1021.17
2022-10-18T09:22:09.857Z,1021.21
2022-10-18T09:23:09.771Z,1021.24
2022-10-18T09:24:12.407Z,1021.26
2022-10-18T09:25:09.728Z,1021.21
2022-10-18T09:26:09.716Z,1021.25
2022-10-18T09:27:09.716Z,1021.26
2022-10-18T09:28:09.692Z,1021.30
2022-10-18T09:29:09.907Z,1021.29
2022-10-18T09:30:09.675Z,1021.28
2022-10-18T09:31:09.675Z,1021.30
2022-10-18T09:32:09.657Z,1021.28
2022-10-18T09:33:09.645Z,1021.19
2022-10-18T09:34:09.647Z,1021.21
2022-10-18T09:35:09.627Z,1021.20
2022-10-18T09:36:09.627Z,1021.29
2022-10-18T09:37:09.589Z,1021.28
2022-10-18T09:38:09.576Z,1021.29
2022-10-18T09:39:09.589Z,1021.30
2022-10-18T09:40:09.562Z,1021.25
2022-10-18T09:41:09.576Z,1021.29
2022-10-18T09:42:09.537Z,1021.29
2022-10-18T09:43:09.522Z,1021.28
2022-10-18T09:44:09.523Z,1021.35
2022-10-18T09:45:09.507Z,1021.34
2022-10-18T09:46:09.512Z,1021.42
2022-10-18T09:47:12.281Z,1021.51
2022-10-18T09:48:10.467Z,1021.50
2022-10-18T09:49:12.922Z,1021.45
2022-10-18T09:50:10.444Z,1021.40
2022-10-18T09:51:09.452Z,1021.37
2022-10-18T09:52:09.432Z,1021.33
2022-10-18T09:53:09.416Z,1021.30
2022-10-18T09:54:09.396Z,1021.30
2022-10-18T09:55:09.411Z,1021.49
2022-10-18T09:56:09.381Z,1021.41
2022-10-18T09:57:09.406Z,1021.49
2022-10-18T09:58:09.349Z,1021.44
2022-10-18T09:59:09.350Z,1021.45
2022-10-18T10:00:09.335Z,1021.39
2022-10-18T10:01:09.317Z,1021.33
2022-10-18T10:02:09.358Z,1021.30
2022-10-18T10:03:09.299Z,1021.28
2022-10-18T10:04:09.284Z,1021.23
2022-10-18T10:05:12.302Z,1021.33
2022-10-18T10:06:09.335Z,1021.33
2022-10-18T10:07:09.262Z,1021.39
2022-10-18T10:08:09.266Z,1021.41
2022-10-18T10:09:09.256Z,1021.47
2022-10-18T10:10:09.219Z,1021.43
2022-10-18T10:11:09.226Z,1021.42
2022-10-18T10:12:09.208Z,1021.38
2022-10-18T10:13:09.207Z,1021.39
2022-10-18T10:14:09.239Z,1021.37
2022-10-18T10:15:09.178Z,1021.28
2022-10-18T10:16:09.149Z,1021.30
2022-10-18T10:17:09.181Z,1021.32
2022-10-18T10:18:09.136Z,1021.42
2022-10-18T10:19:09.129Z,1021.44
2022-10-18T10:20:09.108Z,1021.44
2022-10-18T10:21:09.096Z,1021.50
2022-10-18T10:22:09.083Z,1021.47
2022-10-18T10:23:09.223Z,1021.41
2022-10-18T10:24:09.061Z,1021.34
2022-10-18T10:25:09.054Z,1021.28
2022-10-18T10:26:09.044Z,1021.29
2022-10-18T10:27:09.049Z,1021.32
2022-10-18T10:28:09.055Z,1021.33
2022-10-18T10:29:17.369Z,1021.46
2022-10-18T10:30:10.003Z,1021.43
2022-10-18T10:31:08.989Z,1021.47
2022-10-18T10:32:08.980Z,1021.50
2022-10-18T10:33:08.986Z,1021.54
2022-10-18T10:34:08.962Z,1021.39
2022-10-18T10:35:13.608Z,1021.34
2022-10-18T10:36:09.939Z,1021.34
2022-10-18T10:37:08.922Z,1021.35
2022-10-18T10:38:08.926Z,1021.41
2022-10-18T10:39:08.921Z,1021.33
2022-10-18T10:40:27.841Z,1021.35
2022-10-18T10:41:09.876Z,1021.31
2022-10-18T10:42:10.793Z,1021.36
2022-10-18T10:43:18.137Z,1021.35
2022-10-18T10:44:09.883Z,1021.47
2022-10-18T10:45:08.829Z,1021.40
2022-10-18T10:46:08.824Z,1021.37
2022-10-18T10:47:08.833Z,1021.33
2022-10-18T10:48:08.801Z,1021.35
2022-10-18T10:49:38.408Z,1021.29
2022-10-18T10:50:09.800Z,1021.30
2022-10-18T10:51:08.778Z,1021.36
2022-10-18T10:52:22.461Z,1021.34
2022-10-18T10:53:09.752Z,1021.34
2022-10-18T10:54:08.736Z,1021.37
2022-10-18T10:55:30.825Z,1021.40
2022-10-18T10:56:11.287Z,1021.36
2022-10-18T10:57:08.716Z,1021.41
2022-10-18T10:58:08.697Z,1021.34
2022-10-18T10:59:08.785Z,1021.38
2022-10-18T11:00:08.669Z,1021.34
2022-10-18T11:01:11.181Z,1021.34
2022-10-18T11:02:08.677Z,1021.37
2022-10-18T11:03:27.316Z,1021.38
2022-10-18T11:04:09.728Z,1021.41
2022-10-18T11:05:08.636Z,1021.45
2022-10-18T11:06:08.599Z,1021.48
2022-10-18T11:07:08.615Z,1021.51
2022-10-18T11:08:08.581Z,1021.49
2022-10-18T11:09:08.595Z,1021.48
2022-10-18T11:10:08.564Z,1021.42
2022-10-18T11:11:09.421Z,1021.41
2022-10-18T11:12:08.550Z,1021.41
2022-10-18T11:13:08.550Z,1021.41
2022-10-18T11:15:09.527Z,1021.45
2022-10-18T11:16:08.511Z,1021.48
2022-10-18T11:17:08.559Z,1021.42
2022-10-18T11:18:08.470Z,1021.40
2022-10-18T11:19:08.481Z,1021.45
2022-10-18T11:20:08.458Z,1021.28
2022-10-18T11:21:08.440Z,1021.26
2022-10-18T11:22:08.428Z,1021.37
2022-10-18T11:23:08.417Z,1021.36
2022-10-18T11:24:08.412Z,1021.36
2022-10-18T11:25:08.397Z,1021.41
2022-10-18T11:26:08.379Z,1021.51
2022-10-18T11:27:08.380Z,1021.49
2022-10-18T11:28:08.359Z,1021.42
2022-10-18T11:29:08.370Z,1021.36
2022-10-18T11:30:08.340Z,1021.33
2022-10-18T11:31:08.339Z,1021.34
2022-10-18T11:32:08.317Z,1021.31
2022-10-18T11:33:08.300Z,1021.36
2022-10-18T11:34:09.802Z,1021.42
2022-10-18T11:35:08.309Z,1021.45
2022-10-18T11:36:08.265Z,1021.40
2022-10-18T11:37:28.542Z,1021.34
2022-10-18T11:38:09.284Z,1021.42
2022-10-18T11:39:08.254Z,1021.36
2022-10-18T11:40:08.247Z,1021.31
2022-10-18T11:41:08.239Z,1021.38
2022-10-18T11:42:08.206Z,1021.38
2022-10-18T11:43:08.199Z,1021.46
2022-10-18T11:44:08.197Z,1021.39
2022-10-18T11:45:08.173Z,1021.35
2022-10-18T11:46:08.176Z,1021.35
2022-10-18T11:47:08.164Z,1021.36
2022-10-18T11:48:08.135Z,1021.28
2022-10-18T11:49:08.121Z,1021.29
2022-10-18T11:50:08.112Z,1021.29
2022-10-18T11:51:08.119Z,1021.29
2022-10-18T11:52:09.269Z,1021.38
2022-10-18T11:53:08.102Z,1021.39
2022-10-18T11:54:08.077Z,1021.28
2022-10-18T11:55:08.059Z,1021.28
2022-10-18T11:56:08.070Z,1021.28
2022-10-18T11:57:08.056Z,1021.21
2022-10-18T11:58:08.029Z,1021.20
2022-10-18T11:59:08.014Z,1021.21
2022-10-18T12:00:08.014Z,1021.27
2022-10-18T12:01:08.006Z,1021.29
2022-10-18T12:02:07.994Z,1021.34
2022-10-18T12:03:08.094Z,1021.24
2022-10-18T12:04:07.975Z,1021.19
2022-10-18T12:05:24.579Z,1021.20
2022-10-18T12:06:08.939Z,1021.20
2022-10-18T12:07:07.937Z,1021.21
2022-10-18T12:08:07.916Z,1021.20